Time;durP1;ratioP1;P1;durP2;ratioP2;P2;SDS_P1;SDS_P2;PMS_P1;PMS_P2;Temp;Humidity;BMP_temperature;BMP_pressure;BME280_temperature;BME280_humidity;BME280_pressure;Samples;Min_cycle;Max_cycle;Signal;HPM_P1;HPM_P2
2021/12/31 00:01:37;;;;;;;6.50;5.87;;;;;;;11.76;100.00;101005.84;5024368;28;21024;-54
2021/12/31 00:04:03;;;;;;;7.77;6.43;;;;;;;11.82;100.00;101005.81;5023359;28;20407;-56
2021/12/31 00:06:31;;;;;;;6.00;5.50;;;;;;;11.78;100.00;101003.19;5024277;28;20236;-57
2021/12/31 00:08:59;;;;;;;6.03;5.53;;;;;;;11.80;100.00;101015.47;5025254;28;20302;-59
2021/12/31 00:11:25;;;;;;;9.80;5.67;;;;;;;11.87;100.00;101013.75;5023830;28;20322;-57
2021/12/31 00:13:52;;;;;;;6.93;6.27;;;;;;;11.75;100.00;101009.34;5024550;28;20272;-58
2021/12/31 00:16:18;;;;;;;7.67;6.77;;;;;;;11.77;100.00;101012.84;5025078;28;20252;-56
2021/12/31 00:18:44;;;;;;;7.13;6.43;;;;;;;11.72;100.00;101022.47;5028444;28;20666;-57
2021/12/31 00:21:11;;;;;;;7.20;6.20;;;;;;;11.68;100.00;101013.72;5030850;28;20306;-56
2021/12/31 00:23:37;;;;;;;11.73;7.17;;;;;;;11.75;100.00;101003.19;5029166;28;20232;-56
2021/12/31 00:26:04;;;;;;;7.83;7.03;;;;;;;11.76;100.00;100997.06;5028427;28;20244;-56
2021/12/31 00:28:32;;;;;;;7.63;6.73;;;;;;;11.70;100.00;100990.06;5025878;28;20713;-57
2021/12/31 00:30:58;;;;;;;7.43;6.73;;;;;;;11.71;100.00;100991.81;5029152;28;20260;-57
2021/12/31 00:33:24;;;;;;;7.80;7.00;;;;;;;11.66;100.00;100999.72;5028085;28;20240;-57
2021/12/31 00:35:51;;;;;;;9.90;7.40;;;;;;;11.72;100.00;101001.44;5029093;28;20339;-56
2021/12/31 00:38:18;;;;;;;9.90;8.13;;;;;;;11.76;100.00;100999.69;5030064;28;20812;-56
2021/12/31 00:40:44;;;;;;;8.90;8.10;;;;;;;11.80;100.00;101001.47;5030247;28;20648;-54
2021/12/31 00:43:12;;;;;;;8.73;7.87;;;;;;;11.81;100.00;100998.81;5028439;28;20732;-55
2021/12/31 00:45:41;;;;;;;8.83;7.93;;;;;;;11.76;100.00;100995.31;5028515;28;20290;-57
2021/12/31 00:48:08;;;;;;;8.60;7.77;;;;;;;11.86;100.00;100990.94;5028647;28;20228;-58
2021/12/31 00:50:35;;;;;;;9.53;8.33;;;;;;;11.87;100.00;100990.94;5027931;28;20498;-55
2021/12/31 00:53:01;;;;;;;8.30;7.50;;;;;;;11.84;100.00;100990.94;5028536;28;20828;-56
2021/12/31 00:55:28;;;;;;;9.17;8.20;;;;;;;11.86;100.00;100996.19;5027964;28;20614;-55
2021/12/31 00:57:54;;;;;;;9.27;8.07;;;;;;;11.91;100.00;101002.34;5026785;28;20236;-54
2021/12/31 01:00:23;;;;;;;8.53;7.73;;;;;;;11.89;100.00;101001.44;5027531;28;20274;-57
2021/12/31 01:02:49;;;;;;;9.50;8.60;;;;;;;11.87;100.00;100995.34;5032766;28;20224;-56
2021/12/31 01:05:16;;;;;;;9.63;7.67;;;;;;;11.96;100.00;101011.09;5027004;28;20513;-53
2021/12/31 01:07:43;;;;;;;8.00;7.20;;;;;;;11.94;100.00;101013.72;5027903;28;20228;-57
2021/12/31 01:10:13;;;;;;;8.13;7.33;;;;;;;11.99;100.00;101012.84;5028525;28;20262;-55
2021/12/31 01:12:39;;;;;;;8.83;8.00;;;;;;;12.02;100.00;101012.84;5027667;28;20236;-55
2021/12/31 01:15:10;;;;;;;9.97;7.70;;;;;;;12.02;100.00;101023.38;5027302;28;20775;-55
2021/12/31 01:17:48;;;;;;;11.60;8.43;;;;;;;11.96;100.00;101018.97;5027860;28;20796;-56
2021/12/31 01:20:17;;;;;;;9.27;7.57;;;;;;;11.99;100.00;101013.72;5028083;28;20240;-55
2021/12/31 01:22:43;;;;;;;7.97;7.30;;;;;;;11.98;100.00;101022.50;5028682;28;20239;-55
2021/12/31 01:25:10;;;;;;;9.43;7.73;;;;;;;12.00;100.00;101030.38;5027943;28;20668;-56
2021/12/31 01:27:38;;;;;;;7.00;6.40;;;;;;;12.04;100.00;101033.03;5028250;28;20268;-55
2021/12/31 01:30:06;;;;;;;7.60;6.70;;;;;;;12.12;100.00;101038.25;5027363;28;20225;-55
2021/12/31 01:32:32;;;;;;;7.97;7.27;;;;;;;12.07;100.00;101018.94;5029209;28;20233;-55
2021/12/31 01:35:00;;;;;;;7.17;6.47;;;;;;;12.08;100.00;101026.00;5032634;28;20310;-57
2021/12/31 01:37:27;;;;;;;7.60;6.90;;;;;;;12.14;100.00;101023.31;5034203;28;20236;-54
2021/12/31 01:39:54;;;;;;;7.23;5.93;;;;;;;12.09;100.00;101030.38;5026509;28;20620;-55
2021/12/31 01:42:27;;;;;;;7.03;6.33;;;;;;;12.05;100.00;101028.63;5031619;28;20233;-55
2021/12/31 01:44:57;;;;;;;8.63;6.10;;;;;;;12.06;100.00;101031.25;5022128;28;20228;-54
2021/12/31 01:47:33;;;;;;;7.00;6.23;;;;;;;12.24;100.00;101026.81;5026876;28;20569;-55
2021/12/31 01:50:04;;;;;;;6.30;5.37;;;;;;;12.17;100.00;101023.31;5021047;28;20236;-56
2021/12/31 01:52:31;;;;;;;5.97;5.37;;;;;;;12.19;100.00;101024.19;5027592;28;20338;-56
2021/12/31 01:54:57;;;;;;;6.10;5.40;;;;;;;12.28;100.00;101029.41;5026555;28;20233;-54
2021/12/31 01:57:24;;;;;;;6.97;5.60;;;;;;;12.24;100.00;101030.31;5025127;28;20241;-55
2021/12/31 01:59:50;;;;;;;4.90;4.50;;;;;;;12.27;100.00;101035.56;5027116;28;20220;-57
2021/12/31 02:02:17;;;;;;;4.93;4.53;;;;;;;12.30;100.00;101025.03;5027112;28;20236;-55
2021/12/31 02:04:44;;;;;;;5.30;4.80;;;;;;;12.20;100.00;101035.59;5026208;28;20306;-53
2021/12/31 02:07:11;;;;;;;5.10;4.50;;;;;;;12.19;100.00;101032.09;5026866;28;20243;-56
2021/12/31 02:09:45;;;;;;;5.23;4.73;;;;;;;12.20;100.00;101028.56;5027031;28;20646;-55
2021/12/31 02:12:11;;;;;;;5.30;4.60;;;;;;;12.29;100.00;101039.09;5027068;28;20252;-57
2021/12/31 02:14:39;;;;;;;5.13;4.73;;;;;;;12.18;100.00;101033.84;5027281;28;20226;-54
2021/12/31 02:17:07;;;;;;;5.50;4.97;;;;;;;12.18;100.00;101047.03;5020398;28;20248;-53
2021/12/31 02:19:35;;;;;;;4.80;4.37;;;;;;;12.26;100.00;101039.09;5026641;28;20228;-53
2021/12/31 02:22:02;;;;;;;4.73;4.43;;;;;;;12.16;100.00;101042.63;5028391;28;20229;-57
2021/12/31 02:24:29;;;;;;;4.90;4.40;;;;;;;12.14;100.00;101049.63;5026399;28;20236;-55
2021/12/31 02:26:55;;;;;;;5.10;4.33;;;;;;;12.12;100.00;101044.41;5025965;28;20490;-54
2021/12/31 02:29:23;;;;;;;5.13;4.30;;;;;;;12.04;100.00;101042.63;5026432;28;20236;-56
2021/12/31 02:31:50;;;;;;;5.87;5.27;;;;;;;12.03;100.00;101046.16;5027130;28;20730;-55
2021/12/31 02:34:16;;;;;;;7.03;5.17;;;;;;;12.01;100.00;101050.56;5025474;28;20256;-54
2021/12/31 02:36:42;;;;;;;5.67;5.17;;;;;;;12.04;100.00;101054.06;5026784;28;20530;-54
2021/12/31 02:39:10;;;;;;;6.10;5.40;;;;;;;12.05;100.00;101054.94;5025455;28;20697;-54
2021/12/31 02:41:36;;;;;;;5.70;5.20;;;;;;;12.00;100.00;101057.56;5026462;28;20232;-56
2021/12/31 02:44:03;;;;;;;8.60;6.13;;;;;;;12.05;100.00;101052.31;5024931;28;20232;-55
2021/12/31 02:46:29;;;;;;;7.07;5.50;;;;;;;12.07;100.00;101058.44;5026154;28;20306;-55
2021/12/31 02:48:57;;;;;;;9.10;5.57;;;;;;;12.05;100.00;101047.06;5025883;28;20236;-54
2021/12/31 02:51:24;;;;;;;7.13;6.43;;;;;;;11.99;100.00;101042.66;5025562;28;20714;-54
2021/12/31 02:53:52;;;;;;;6.23;5.57;;;;;;;12.04;100.00;101047.91;5025716;28;20248;-55
2021/12/31 02:56:20;;;;;;;6.90;6.30;;;;;;;12.05;100.00;101049.69;5025374;28;20295;-54
2021/12/31 02:58:47;;;;;;;6.23;5.73;;;;;;;12.12;100.00;101043.53;5025725;28;20256;-56
2021/12/31 03:01:14;;;;;;;5.37;4.97;;;;;;;12.12;100.00;101048.78;5026478;28;20286;-54
2021/12/31 03:03:41;;;;;;;6.67;6.10;;;;;;;12.15;100.00;101056.69;5027205;28;20236;-55
2021/12/31 03:06:08;;;;;;;7.53;6.73;;;;;;;12.11;100.00;101050.53;5026320;28;20279;-55
2021/12/31 03:08:38;;;;;;;7.23;6.63;;;;;;;12.03;100.00;101046.16;5029773;28;20264;-54
2021/12/31 03:11:05;;;;;;;9.30;6.23;;;;;;;11.97;100.00;101051.44;5027445;28;20233;-53
2021/12/31 03:13:33;;;;;;;7.57;6.77;;;;;;;12.04;100.00;101032.13;5031652;28;20229;-55
2021/12/31 03:16:00;;;;;;;8.63;6.60;;;;;;;12.12;100.00;101027.72;5032079;28;20236;-53
2021/12/31 03:18:27;;;;;;;10.70;7.30;;;;;;;12.04;100.00;101030.38;5032091;28;20247;-54
2021/12/31 03:21:05;;;;;;;6.67;6.03;;;;;;;12.04;100.00;101040.00;5031362;28;20244;-53
2021/12/31 03:23:32;;;;;;;8.87;8.07;;;;;;;12.13;100.00;101029.47;5027233;28;20319;-54
2021/12/31 03:25:58;;;;;;;7.43;6.70;;;;;;;12.08;100.00;101032.13;5030674;28;20365;-54
2021/12/31 03:28:25;;;;;;;7.43;6.80;;;;;;;12.03;100.00;101030.38;5030167;28;20278;-54
2021/12/31 03:30:53;;;;;;;7.27;6.57;;;;;;;12.04;100.00;101032.13;5030429;28;20630;-56
2021/12/31 03:33:20;;;;;;;7.63;6.77;;;;;;;12.10;100.00;101034.75;5027237;28;20287;-53
2021/12/31 03:35:47;;;;;;;8.60;7.80;;;;;;;12.19;100.00;101032.09;5025961;28;20233;-54
2021/12/31 03:38:13;;;;;;;8.47;7.37;;;;;;;12.09;100.00;101035.63;5026068;28;20232;-54
2021/12/31 03:40:40;;;;;;;8.07;7.27;;;;;;;12.05;100.00;101041.78;5025521;28;20260;-55
2021/12/31 03:43:08;;;;;;;8.57;7.77;;;;;;;12.03;100.00;101033.88;5025045;28;20255;-55
2021/12/31 03:45:34;;;;;;;8.93;7.23;;;;;;;12.10;100.00;101042.63;5024871;28;20306;-55
2021/12/31 03:48:02;;;;;;;8.80;7.30;;;;;;;12.11;100.00;101036.47;5024983;28;20225;-56
2021/12/31 03:50:28;;;;;;;8.03;7.30;;;;;;;12.14;100.00;101039.13;5023976;28;20275;-56
2021/12/31 03:52:54;;;;;;;8.50;7.70;;;;;;;12.14;100.00;101036.47;5025612;28;20310;-53
2021/12/31 03:55:21;;;;;;;8.20;7.37;;;;;;;12.20;100.00;101041.75;5024466;28;20240;-56
2021/12/31 03:57:47;;;;;;;7.57;6.87;;;;;;;12.24;100.00;101035.56;5024110;28;20328;-57
2021/12/31 04:00:15;;;;;;;7.50;6.77;;;;;;;12.13;100.00;101042.63;5024456;28;20314;-59
2021/12/31 04:02:42;;;;;;;8.20;7.40;;;;;;;12.11;100.00;101032.13;5025512;28;20725;-56
2021/12/31 04:05:10;;;;;;;7.73;6.43;;;;;;;12.13;100.00;101034.75;5022966;28;20236;-55
2021/12/31 04:07:36;;;;;;;9.13;7.83;;;;;;;12.09;100.00;101031.25;5024252;28;20834;-54
2021/12/31 04:10:03;;;;;;;8.17;7.37;;;;;;;12.11;100.00;101026.84;5024876;28;20271;-56
2021/12/31 04:12:30;;;;;;;7.87;7.07;;;;;;;12.09;100.00;101025.09;5023769;28;20248;-55
2021/12/31 04:14:56;;;;;;;8.27;6.57;;;;;;;12.13;100.00;101021.56;5024405;28;20260;-54
2021/12/31 04:17:22;;;;;;;7.63;6.83;;;;;;;12.05;100.00;101020.72;5024054;28;20395;-57
2021/12/31 04:19:54;;;;;;;9.33;7.67;;;;;;;12.00;100.00;101028.63;5023948;28;20287;-56
2021/12/31 04:22:24;;;;;;;8.47;7.33;;;;;;;12.02;100.00;101028.63;5023871;28;20248;-55
2021/12/31 04:24:53;;;;;;;9.70;7.70;;;;;;;11.97;100.00;101022.47;5024852;28;20236;-55
2021/12/31 04:27:21;;;;;;;6.93;6.23;;;;;;;12.03;100.00;101019.84;5023524;28;20349;-55
2021/12/31 04:29:51;;;;;;;7.73;7.03;;;;;;;12.10;100.00;101017.19;5024852;28;20244;-55
2021/12/31 04:32:17;;;;;;;6.53;5.93;;;;;;;12.13;100.00;101011.03;5024123;28;20250;-55
2021/12/31 04:34:43;;;;;;;9.70;7.07;;;;;;;11.99;100.00;101018.09;5024476;28;20228;-55
2021/12/31 04:37:10;;;;;;;6.63;5.93;;;;;;;12.06;100.00;101014.56;5024355;28;20290;-54
2021/12/31 04:39:37;;;;;;;8.77;6.40;;;;;;;12.04;100.00;101011.06;5024820;28;20236;-54
2021/12/31 04:42:04;;;;;;;7.07;6.33;;;;;;;12.06;100.00;101009.31;5024666;28;20361;-55
2021/12/31 04:44:31;;;;;;;7.03;5.93;;;;;;;12.14;100.00;101011.06;5022976;28;20286;-54
2021/12/31 04:46:57;;;;;;;7.77;7.07;;;;;;;12.12;100.00;101004.03;5032553;28;20768;-54
2021/12/31 04:49:23;;;;;;;6.93;6.33;;;;;;;12.05;100.00;100997.91;5023854;28;20272;-56
2021/12/31 04:51:50;;;;;;;6.27;5.70;;;;;;;12.04;100.00;101001.44;5024814;28;20258;-54
2021/12/31 04:54:16;;;;;;;5.70;5.20;;;;;;;12.09;100.00;101004.03;5024810;28;20678;-54
2021/12/31 04:56:44;;;;;;;5.70;5.07;;;;;;;12.08;100.00;101010.19;5024457;28;20623;-54
2021/12/31 04:59:10;;;;;;;5.20;4.70;;;;;;;12.04;100.00;101016.31;5024467;28;20236;-56
2021/12/31 05:01:37;;;;;;;4.97;4.53;;;;;;;12.14;100.00;101012.78;5024032;28;20328;-54
2021/12/31 05:04:04;;;;;;;4.83;4.43;;;;;;;12.12;100.00;101011.94;5027233;28;20310;-53
2021/12/31 05:06:30;;;;;;;4.27;3.97;;;;;;;12.14;100.00;101010.16;5027758;28;20321;-53
2021/12/31 05:08:57;;;;;;;4.53;4.13;;;;;;;12.12;100.00;101015.44;5028287;28;20225;-54
2021/12/31 05:11:23;;;;;;;5.70;4.00;;;;;;;12.13;100.00;101017.19;5027926;28;20243;-56
2021/12/31 05:13:51;;;;;;;5.73;4.00;;;;;;;12.25;100.00;101021.56;5027852;28;20294;-55
2021/12/31 05:16:17;;;;;;;4.67;4.00;;;;;;;12.27;100.00;101021.53;5028987;28;20236;-53
2021/12/31 05:18:43;;;;;;;3.60;3.37;;;;;;;12.22;100.00;101025.97;5030172;28;20715;-57
2021/12/31 05:21:10;;;;;;;4.20;3.90;;;;;;;12.17;100.00;101018.06;5030142;28;20293;-55
2021/12/31 05:23:36;;;;;;;3.73;3.20;;;;;;;12.26;100.00;101018.03;5028132;28;20240;-54
2021/12/31 05:26:02;;;;;;;3.67;3.40;;;;;;;12.20;100.00;101023.31;5028186;28;20256;-55
2021/12/31 05:28:29;;;;;;;3.80;3.50;;;;;;;12.26;100.00;101023.31;5026669;28;20260;-54
2021/12/31 05:30:56;;;;;;;3.97;3.67;;;;;;;12.22;100.00;101026.81;5027708;28;20255;-54
2021/12/31 05:33:22;;;;;;;3.30;3.00;;;;;;;12.22;100.00;101024.19;5026371;28;20286;-56
2021/12/31 05:35:49;;;;;;;3.67;3.27;;;;;;;12.22;100.00;101025.97;5026382;28;20260;-54
2021/12/31 05:38:15;;;;;;;3.87;3.40;;;;;;;12.28;100.00;101020.66;5026881;28;20252;-56
2021/12/31 05:40:41;;;;;;;5.77;4.27;;;;;;;12.22;100.00;101020.69;5027474;28;20259;-55
2021/12/31 05:43:08;;;;;;;4.37;3.47;;;;;;;12.30;100.00;101025.03;5026346;28;20760;-54
2021/12/31 05:45:34;;;;;;;4.33;3.67;;;;;;;12.28;100.00;101025.91;5027106;28;20237;-54
2021/12/31 05:48:02;;;;;;;3.67;3.37;;;;;;;12.26;100.00;101018.03;5027833;28;20232;-54
2021/12/31 05:50:28;;;;;;;5.17;3.43;;;;;;;12.25;100.00;101011.03;5026122;28;20615;-54
2021/12/31 05:52:55;;;;;;;4.60;4.00;;;;;;;12.18;100.00;101011.94;5027674;28;20232;-55
2021/12/31 05:55:22;;;;;;;3.47;3.23;;;;;;;12.26;100.00;101012.78;5026545;28;20239;-55
2021/12/31 05:57:48;;;;;;;3.57;3.27;;;;;;;12.25;100.00;101016.28;5026812;28;20310;-55
2021/12/31 06:00:15;;;;;;;4.17;3.77;;;;;;;12.34;100.00;101016.25;5027589;28;20678;-54
2021/12/31 06:02:42;;;;;;;3.77;3.50;;;;;;;12.30;100.00;101035.56;5027610;28;20702;-55
2021/12/31 06:05:10;;;;;;;3.23;3.03;;;;;;;12.25;100.00;101037.34;5026226;28;20306;-55
2021/12/31 06:07:36;;;;;;;3.70;3.40;;;;;;;12.18;100.00;101030.34;5026771;28;20306;-54
2021/12/31 06:10:04;;;;;;;4.20;3.80;;;;;;;12.20;100.00;101032.97;5026753;28;20721;-56
2021/12/31 06:12:30;;;;;;;3.73;3.43;;;;;;;12.28;100.00;101036.44;5025829;28;20256;-54
2021/12/31 06:15:01;;;;;;;5.37;4.20;;;;;;;12.26;100.00;101032.97;5024884;28;20302;-54
2021/12/31 06:17:27;;;;;;;3.57;3.37;;;;;;;12.23;100.00;101039.09;5026171;28;20725;-55
2021/12/31 06:19:54;;;;;;;4.13;3.37;;;;;;;12.32;100.00;101033.81;5019280;28;20705;-54
2021/12/31 06:22:22;;;;;;;3.60;3.40;;;;;;;12.27;100.00;101035.56;5028469;28;20268;-54
2021/12/31 06:24:49;;;;;;;4.33;3.87;;;;;;;12.34;100.00;101037.31;5026653;28;20229;-53
2021/12/31 06:27:15;;;;;;;3.73;3.47;;;;;;;12.33;100.00;101040.81;5025831;28;20527;-56
2021/12/31 06:29:41;;;;;;;6.70;4.50;;;;;;;12.27;100.00;101040.84;5026768;28;20263;-55
2021/12/31 06:32:08;;;;;;;3.60;3.27;;;;;;;12.33;100.00;101050.47;5026784;28;20259;-53
2021/12/31 06:34:34;;;;;;;5.57;3.90;;;;;;;12.33;100.00;101047.84;5025903;28;20228;-54
2021/12/31 06:37:02;;;;;;;3.90;3.60;;;;;;;12.36;100.00;101056.63;5026113;28;20243;-52
2021/12/31 06:39:29;;;;;;;4.20;3.90;;;;;;;12.37;100.00;101052.22;5026581;28;20313;-55
2021/12/31 06:41:56;;;;;;;4.87;4.47;;;;;;;12.23;100.00;101060.16;5026640;28;20617;-56
2021/12/31 06:44:22;;;;;;;6.23;4.00;;;;;;;12.27;100.00;101061.03;5025136;28;20279;-53
2021/12/31 06:46:48;;;;;;;4.13;3.83;;;;;;;12.27;100.00;101061.91;5025990;28;20260;-54
2021/12/31 06:49:15;;;;;;;4.27;3.87;;;;;;;12.31;100.00;101063.63;5025727;28;20228;-55
2021/12/31 06:51:41;;;;;;;5.27;4.73;;;;;;;12.20;100.00;101054.03;5026286;28;20662;-56
2021/12/31 06:54:07;;;;;;;6.70;3.97;;;;;;;12.22;100.00;101058.41;5026260;28;20592;-53
2021/12/31 06:56:35;;;;;;;4.80;4.17;;;;;;;12.20;100.00;101056.66;5025173;28;20256;-55
2021/12/31 06:59:01;;;;;;;4.50;4.20;;;;;;;12.21;100.00;101056.63;5025598;28;20287;-55
2021/12/31 07:01:27;;;;;;;4.30;4.00;;;;;;;12.25;100.00;101042.63;5025863;28;20232;-54
2021/12/31 07:03:54;;;;;;;4.27;3.80;;;;;;;12.18;100.00;101048.78;5010575;28;20249;-53
2021/12/31 07:06:20;;;;;;;4.13;3.83;;;;;;;12.17;100.00;101052.28;5025876;28;20303;-55
2021/12/31 07:08:47;;;;;;;4.03;3.73;;;;;;;12.17;100.00;101049.63;5026552;28;20236;-57
2021/12/31 07:11:13;;;;;;;7.90;4.07;;;;;;;12.14;100.00;101052.28;5027009;28;20252;-53
2021/12/31 07:13:41;;;;;;;4.80;4.40;;;;;;;12.18;100.00;101046.16;5025436;28;20709;-55
2021/12/31 07:16:07;;;;;;;4.40;4.00;;;;;;;12.23;100.00;101054.91;5025655;28;20266;-54
2021/12/31 07:18:33;;;;;;;5.77;4.53;;;;;;;12.28;100.00;101052.25;5025636;28;20271;-55
2021/12/31 07:21:00;;;;;;;4.50;4.10;;;;;;;12.24;100.00;101051.38;5031306;28;20244;-54
2021/12/31 07:23:26;;;;;;;4.80;4.20;;;;;;;12.28;100.00;101068.03;5035876;28;20228;-55
2021/12/31 07:25:52;;;;;;;4.53;4.13;;;;;;;12.24;100.00;101061.91;5031867;28;21756;-55
2021/12/31 07:28:19;;;;;;;4.10;3.80;;;;;;;12.10;100.00;101059.28;5024936;28;20232;-52
2021/12/31 07:30:47;;;;;;;4.30;3.80;;;;;;;12.25;100.00;101062.78;5025522;28;20654;-54
2021/12/31 07:33:18;;;;;;;3.37;3.17;;;;;;;12.15;100.00;101072.47;5024530;28;20228;-55
2021/12/31 07:35:44;;;;;;;4.10;3.73;;;;;;;12.19;100.00;101063.69;5023991;28;20228;-55
2021/12/31 07:38:18;;;;;;;4.37;4.07;;;;;;;12.24;100.00;101072.44;5024762;28;20252;-56
2021/12/31 07:40:45;;;;;;;4.77;4.37;;;;;;;12.31;100.00;101068.91;5025077;28;20235;-52
2021/12/31 07:43:12;;;;;;;4.17;3.80;;;;;;;12.25;100.00;101063.69;5023634;28;20244;-56
2021/12/31 07:45:39;;;;;;;3.77;3.47;;;;;;;12.26;100.00;101067.19;5024494;28;20673;-54
2021/12/31 07:48:07;;;;;;;4.47;3.80;;;;;;;12.19;100.00;101068.94;5024960;28;20256;-54
2021/12/31 07:50:34;;;;;;;4.60;4.27;;;;;;;12.31;100.00;101065.41;5024538;28;20314;-54
2021/12/31 07:53:00;;;;;;;4.63;3.57;;;;;;;12.34;100.00;101074.16;5025324;28;20260;-55
2021/12/31 07:55:27;;;;;;;4.07;3.77;;;;;;;12.33;100.00;101061.03;5024855;28;20256;-55
2021/12/31 07:57:53;;;;;;;3.80;3.50;;;;;;;12.38;100.00;101060.09;5024758;28;20271;-52
2021/12/31 08:00:19;;;;;;;3.33;3.13;;;;;;;12.36;100.00;101061.00;5024195;28;20252;-54
2021/12/31 08:02:46;;;;;;;4.13;3.70;;;;;;;12.30;100.00;101068.91;5025291;28;20286;-56
2021/12/31 08:05:13;;;;;;;3.87;3.57;;;;;;;12.39;100.00;101063.63;5023825;28;20232;-55
2021/12/31 08:07:40;;;;;;;2.90;2.70;;;;;;;12.43;100.00;101064.50;5025231;28;20791;-53
2021/12/31 08:10:07;;;;;;;4.23;3.83;;;;;;;12.40;100.00;101068.88;5025548;28;20272;-55
2021/12/31 08:12:35;;;;;;;2.97;2.50;;;;;;;12.38;100.00;101081.16;5024352;28;20868;-54
2021/12/31 08:15:01;;;;;;;3.43;2.90;;;;;;;12.46;100.00;101067.09;5025076;28;20700;-54
2021/12/31 08:17:27;;;;;;;3.73;3.40;;;;;;;12.41;100.00;101065.38;5025633;28;20662;-52
2021/12/31 08:19:54;;;;;;;3.60;3.30;;;;;;;12.48;100.00;101067.97;5018427;28;20259;-58
2021/12/31 08:22:22;;;;;;;3.27;3.07;;;;;;;12.52;100.00;101069.72;5025721;28;20256;-53
2021/12/31 08:24:48;;;;;;;2.93;2.70;;;;;;;12.45;100.00;101054.81;5025227;28;20576;-54
2021/12/31 08:27:15;;;;;;;3.07;2.87;;;;;;;12.44;100.00;101047.81;5024676;28;20232;-53
2021/12/31 08:29:41;;;;;;;3.30;3.00;;;;;;;12.44;100.00;101055.72;5024605;28;20267;-56
2021/12/31 08:32:07;;;;;;;4.30;3.17;;;;;;;12.51;100.00;101034.63;5024505;28;20791;-55
2021/12/31 08:34:34;;;;;;;3.27;3.07;;;;;;;12.50;100.00;101037.25;5024132;28;20252;-53
2021/12/31 08:37:00;;;;;;;3.10;2.83;;;;;;;12.52;100.00;101036.34;5025548;28;20256;-54
2021/12/31 08:39:28;;;;;;;3.07;2.80;;;;;;;12.43;100.00;101025.88;5028684;28;20315;-55
2021/12/31 08:41:54;;;;;;;3.63;2.90;;;;;;;12.43;100.00;101030.28;5028496;28;20319;-54
2021/12/31 08:44:20;;;;;;;3.13;2.83;;;;;;;12.54;100.00;101026.69;5023580;28;20311;-54
2021/12/31 08:46:47;;;;;;;2.30;2.20;;;;;;;12.54;100.00;101025.84;5028622;28;20260;-52
2021/12/31 08:49:14;;;;;;;3.17;2.30;;;;;;;12.52;100.00;101036.34;5027110;28;20237;-53
2021/12/31 08:51:40;;;;;;;2.20;2.10;;;;;;;12.47;100.00;101038.16;5028003;28;20335;-54
2021/12/31 08:54:07;;;;;;;4.30;2.67;;;;;;;12.55;100.00;101032.84;5028009;28;20252;-54
2021/12/31 08:56:35;;;;;;;2.60;2.30;;;;;;;12.46;100.00;101027.59;5025263;28;20739;-55
2021/12/31 08:59:03;;;;;;;2.53;2.33;;;;;;;12.54;100.00;101028.47;5027497;28;20256;-54
2021/12/31 09:01:29;;;;;;;2.97;1.90;;;;;;;12.49;100.00;101023.19;5027457;28;20248;-55
2021/12/31 09:03:56;;;;;;;2.27;2.17;;;;;;;12.52;100.00;101031.09;5027205;28;20306;-54
2021/12/31 09:06:22;;;;;;;2.40;2.00;;;;;;;12.50;100.00;101037.25;5027327;28;20260;-56
2021/12/31 09:08:49;;;;;;;2.17;1.97;;;;;;;12.56;100.00;101037.22;5028045;28;20756;-55
2021/12/31 09:11:16;;;;;;;2.87;1.63;;;;;;;12.62;100.00;101045.09;5028283;28;20748;-54
2021/12/31 09:13:46;;;;;;;2.40;2.20;;;;;;;12.60;100.00;101052.13;5026602;28;20256;-56
2021/12/31 09:16:12;;;;;;;5.63;2.63;;;;;;;12.64;100.00;101051.25;5026587;28;20322;-54
2021/12/31 09:18:39;;;;;;;2.70;2.07;;;;;;;12.63;100.00;101052.09;5026673;28;20232;-54
2021/12/31 09:21:05;;;;;;;3.17;2.10;;;;;;;12.63;100.00;101057.38;5029412;28;20305;-54
2021/12/31 09:23:32;;;;;;;5.00;2.57;;;;;;;12.74;100.00;101052.97;5028023;28;20260;-55
2021/12/31 09:26:00;;;;;;;5.00;2.15;;;;;;;12.67;100.00;101061.78;5026833;28;20264;-54
2021/12/31 09:28:27;;;;;;;1.90;1.80;;;;;;;12.53;100.00;101069.72;5026889;28;20581;-54
2021/12/31 09:30:55;;;;;;;3.20;2.57;;;;;;;12.60;100.00;101065.28;5027754;28;20310;-56
2021/12/31 09:33:21;;;;;;;2.90;2.30;;;;;;;12.58;100.00;101061.81;5027275;28;20390;-54
2021/12/31 09:35:47;;;;;;;2.10;1.90;;;;;;;12.69;100.00;101062.63;5027054;28;20719;-55
2021/12/31 09:38:14;;;;;;;2.17;1.60;;;;;;;12.76;100.00;101058.22;5027895;28;20229;-54
2021/12/31 09:40:40;;;;;;;2.10;1.90;;;;;;;12.71;100.00;101052.97;5029894;28;20229;-55
2021/12/31 09:43:09;;;;;;;1.73;1.60;;;;;;;12.70;100.00;101047.69;5028978;28;20275;-52
2021/12/31 09:45:36;;;;;;;2.72;2.00;;;;;;;12.71;100.00;101050.34;5029233;28;20260;-54
2021/12/31 09:48:07;;;;;;;4.23;2.80;;;;;;;12.73;100.00;101051.19;5028420;28;20236;-54
2021/12/31 09:50:33;;;;;;;2.20;2.00;;;;;;;12.79;100.00;101045.03;5027279;28;20240;-55
2021/12/31 09:53:00;;;;;;;2.67;1.80;;;;;;;12.80;100.00;101050.28;5028540;28;20694;-54
2021/12/31 09:55:37;;;;;;;1.73;1.63;;;;;;;12.80;100.00;101045.00;5027857;28;20287;-54
2021/12/31 09:58:04;;;;;;;2.13;2.00;;;;;;;12.74;100.00;101042.44;5020113;28;20232;-54
2021/12/31 10:00:30;;;;;;;2.13;2.03;;;;;;;12.87;100.00;101044.09;5030817;28;20232;-54
2021/12/31 10:03:10;;;;;;;4.38;2.13;;;;;;;12.85;100.00;101045.88;5029055;28;20645;-53
2021/12/31 10:05:41;;;;;;;1.92;1.65;;;;;;;12.90;100.00;101041.44;5026995;28;20643;-52
2021/12/31 10:08:13;;;;;;;1.77;1.67;;;;;;;12.88;100.00;101043.22;5028258;28;20236;-54
2021/12/31 10:10:39;;;;;;;6.97;2.23;;;;;;;12.90;100.00;101041.44;5027308;28;20248;-54
2021/12/31 10:13:07;;;;;;;7.97;5.45;;;;;;;12.88;100.00;101040.59;5029231;28;20273;-54
2021/12/31 10:15:38;;;;;;;1.85;1.75;;;;;;;12.83;100.00;101037.09;5026801;28;20713;-53
2021/12/31 10:18:12;;;;;;;2.08;1.92;;;;;;;12.80;100.00;101033.59;5030108;28;20248;-53
2021/12/31 10:20:47;;;;;;;3.75;2.13;;;;;;;12.70;100.00;101023.97;5032616;28;20235;-54
2021/12/31 10:23:15;;;;;;;1.73;1.60;;;;;;;12.71;100.00;101034.53;5032664;28;20790;-53
2021/12/31 10:25:42;;;;;;;2.03;1.80;;;;;;;12.69;100.00;101028.38;5032595;28;20233;-53
2021/12/31 10:28:10;;;;;;;1.90;1.70;;;;;;;12.70;100.00;101035.38;5032730;28;20725;-54
2021/12/31 10:30:37;;;;;;;2.30;1.80;;;;;;;12.64;100.00;101030.19;5029871;28;20298;-53
2021/12/31 10:33:03;;;;;;;1.90;1.70;;;;;;;12.62;100.00;101029.28;5025891;28;20303;-54
2021/12/31 10:35:40;;;;;;;2.63;1.50;;;;;;;12.59;100.00;101031.94;5025064;28;20640;-53
2021/12/31 10:38:07;;;;;;;1.73;1.40;;;;;;;12.64;100.00;101036.31;5026366;28;20309;-54
2021/12/31 10:40:36;;;;;;;2.67;1.63;;;;;;;12.59;100.00;101027.53;5025784;28;20709;-55
2021/12/31 10:43:21;;;;;;;2.00;1.50;;;;;;;12.60;100.00;101028.41;5024884;28;20315;-53
2021/12/31 10:45:59;;;;;;;1.67;1.57;;;;;;;12.59;100.00;101024.03;5024195;28;20228;-54
2021/12/31 10:48:38;;;;;;;2.23;1.20;;;;;;;12.59;100.00;101026.66;5024668;28;20238;-55
2021/12/31 10:51:07;;;;;;;1.93;1.83;;;;;;;12.51;100.00;101039.00;5025263;28;20283;-54
2021/12/31 10:53:34;;;;;;;1.63;1.52;;;;;;;12.55;100.00;101027.56;5025178;28;20315;-54
2021/12/31 10:56:09;;;;;;;1.70;1.60;;;;;;;12.55;100.00;101024.94;4991743;28;984803;-54
2021/12/31 10:58:36;;;;;;;2.00;1.70;;;;;;;12.48;100.00;101013.56;5024613;28;20267;-55
2021/12/31 11:01:05;;;;;;;2.70;1.20;;;;;;;12.52;100.00;101020.56;5024849;28;20402;-55
2021/12/31 11:03:32;;;;;;;2.27;1.60;;;;;;;12.57;100.00;101018.78;5025094;28;20799;-53
2021/12/31 11:05:58;;;;;;;2.25;1.48;;;;;;;12.52;100.00;101014.41;5026369;28;20325;-52
2021/12/31 11:08:27;;;;;;;2.60;2.00;;;;;;;12.59;100.00;101021.41;5026361;28;20294;-54
2021/12/31 11:10:54;;;;;;;2.37;1.40;;;;;;;12.54;100.00;101013.53;5026707;28;20302;-54
2021/12/31 11:13:26;;;;;;;1.50;1.40;;;;;;;12.48;100.00;101010.03;5025279;28;20224;-53
2021/12/31 11:15:53;;;;;;;4.00;1.50;;;;;;;12.53;100.00;101016.16;5025910;28;20228;-53
2021/12/31 11:18:23;;;;;;;1.80;1.47;;;;;;;12.58;100.00;101009.13;5025663;28;20858;-54